Time;durP1;ratioP1;P1;durP2;ratioP2;P2;SDS_P1;SDS_P2;PMS_P1;PMS_P2;Temp;Humidity;BMP_temperature;BMP_pressure;BME280_temperature;BME280_humidity;BME280_pressure;Samples;Min_cycle;Max_cycle;Signal;HPM_P1;HPM_P2
2021/09/17 00:01:53;;;;;;;16.65;12.53;;;;;;;14.17;63.74;99754.78;1740097;82;21043;-70
2021/09/17 00:04:20;;;;;;;20.77;12.23;;;;;;;14.18;63.79;99756.41;1735037;82;21024;-69
2021/09/17 00:06:46;;;;;;;22.73;12.35;;;;;;;14.20;63.71;99752.34;1730460;82;21061;-69
2021/09/17 00:09:15;;;;;;;15.80;12.15;;;;;;;14.23;63.81;99753.16;1730671;82;21281;-69
2021/09/17 00:11:43;;;;;;;17.40;12.28;;;;;;;14.25;64.09;99754.22;1730480;82;20945;-70
2021/09/17 00:14:11;;;;;;;16.30;12.40;;;;;;;14.24;64.23;99756.69;1734142;82;21023;-69
2021/09/17 00:16:37;;;;;;;17.87;11.57;;;;;;;14.24;64.39;99753.98;1730983;82;20988;-70
2021/09/17 00:19:06;;;;;;;15.45;10.55;;;;;;;14.23;64.57;99745.05;1730563;82;22141;-69
2021/09/17 00:21:32;;;;;;;22.00;13.03;;;;;;;14.25;64.55;99750.98;1730772;82;21111;-69
2021/09/17 00:24:00;;;;;;;15.15;10.85;;;;;;;14.26;64.51;99743.67;1737373;82;21576;-74
2021/09/17 00:26:27;;;;;;;15.45;10.55;;;;;;;14.26;64.67;99740.44;1715083;82;21011;-70
2021/09/17 00:28:55;;;;;;;20.37;12.03;;;;;;;14.28;64.72;99740.17;1739612;82;20990;-82
2021/09/17 00:31:22;;;;;;;16.12;10.72;;;;;;;14.29;64.63;99739.09;1716342;82;20991;-69
2021/09/17 00:33:48;;;;;;;15.70;10.03;;;;;;;14.30;64.47;99727.98;1710044;83;21213;-69
2021/09/17 00:36:15;;;;;;;12.25;8.68;;;;;;;14.32;64.41;99726.36;1710275;83;21539;-68
2021/09/17 00:38:41;;;;;;;14.80;10.55;;;;;;;14.32;64.36;99728.53;1718612;82;20944;-70
2021/09/17 00:41:11;;;;;;;16.40;10.90;;;;;;;14.33;64.25;99725.28;1735756;82;20946;-72
2021/09/17 00:43:39;;;;;;;17.75;10.08;;;;;;;14.33;64.24;99722.04;1731851;82;20892;-69
2021/09/17 00:46:06;;;;;;;16.45;11.10;;;;;;;14.33;64.25;99715.28;1692512;83;21029;-72
2021/09/17 00:48:33;;;;;;;18.42;12.25;;;;;;;14.35;64.16;99717.15;1709949;83;21038;-75
2021/09/17 00:50:59;;;;;;;17.52;10.88;;;;;;;14.35;64.09;99713.63;1680239;85;21054;-69
2021/09/17 00:53:26;;;;;;;19.87;11.30;;;;;;;14.33;64.11;99710.41;1669699;85;21079;-75
2021/09/17 00:55:53;;;;;;;18.50;12.30;;;;;;;14.32;64.03;99706.89;1676788;84;21067;-69
2021/09/17 00:58:19;;;;;;;15.30;10.00;;;;;;;14.33;64.05;99699.58;1710123;83;21072;-69
2021/09/17 01:00:46;;;;;;;21.48;11.65;;;;;;;14.34;64.01;99701.99;1704440;83;20928;-69
2021/09/17 01:03:12;;;;;;;17.23;12.98;;;;;;;14.33;64.08;99697.69;1680088;85;21051;-78
2021/09/17 01:05:39;;;;;;;19.82;11.30;;;;;;;14.31;64.09;99691.73;1698417;84;21075;-68
2021/09/17 01:08:05;;;;;;;19.32;12.25;;;;;;;14.29;64.14;99694.45;1700999;84;21604;-68
2021/09/17 01:10:33;;;;;;;17.70;12.88;;;;;;;14.28;64.16;99688.77;1684283;84;21056;-70
2021/09/17 01:13:00;;;;;;;18.48;10.75;;;;;;;14.27;64.19;99697.42;1677396;85;21739;-69
2021/09/17 01:15:28;;;;;;;20.32;12.05;;;;;;;14.22;64.37;99694.73;1705777;83;20975;-69
2021/09/17 01:17:54;;;;;;;16.82;11.78;;;;;;;14.17;64.47;99691.22;1708697;83;20999;-72
2021/09/17 01:20:22;;;;;;;15.83;11.05;;;;;;;14.16;64.56;99686.34;1735267;82;20954;-69
2021/09/17 01:22:49;;;;;;;20.70;11.70;;;;;;;14.13;64.84;99687.44;1735052;82;22145;-70
2021/09/17 01:25:20;;;;;;;17.17;11.70;;;;;;;14.09;64.81;99685.02;1735007;82;20978;-68
2021/09/17 01:27:50;;;;;;;19.02;12.88;;;;;;;14.07;64.96;99679.88;1735059;82;20931;-70
2021/09/17 01:30:18;;;;;;;23.50;14.18;;;;;;;14.01;65.26;99676.89;1713951;82;21308;-68
2021/09/17 01:32:44;;;;;;;16.67;12.88;;;;;;;13.95;65.33;99670.70;1735190;82;20939;-68
2021/09/17 01:35:14;;;;;;;21.62;12.15;;;;;;;13.93;65.43;99668.80;1734909;81;21690;-75
2021/09/17 01:37:41;;;;;;;19.07;12.63;;;;;;;13.92;65.50;99658.25;1707217;82;20983;-69
2021/09/17 01:40:10;;;;;;;14.60;10.10;;;;;;;13.91;65.55;99658.79;1734992;82;20983;-69
2021/09/17 01:42:36;;;;;;;16.67;10.60;;;;;;;13.92;65.63;99658.25;1735129;82;21047;-73
2021/09/17 01:45:05;;;;;;;19.42;11.80;;;;;;;13.92;65.55;99653.66;1735016;82;21492;-70
2021/09/17 01:47:32;;;;;;;18.23;9.60;;;;;;;13.95;65.55;99649.61;1737155;82;21056;-69
2021/09/17 01:49:58;;;;;;;16.32;11.38;;;;;;;13.95;65.59;99650.97;1741717;82;21488;-68
2021/09/17 01:52:24;;;;;;;17.73;11.25;;;;;;;13.94;65.51;99647.45;1741621;82;21475;-70
2021/09/17 01:54:52;;;;;;;16.30;11.00;;;;;;;13.96;65.50;99646.62;1738615;82;20954;-69
2021/09/17 01:57:20;;;;;;;16.05;10.55;;;;;;;13.95;65.53;99638.80;1740243;82;21030;-69
2021/09/17 01:59:47;;;;;;;13.22;9.35;;;;;;;13.92;65.75;99638.78;1716330;82;22182;-69
2021/09/17 02:02:13;;;;;;;19.30;11.35;;;;;;;13.90;65.83;99635.56;1737627;82;21002;-69
2021/09/17 02:04:40;;;;;;;19.02;12.13;;;;;;;13.84;66.16;99633.13;1739098;82;21116;-70
2021/09/17 02:07:07;;;;;;;15.28;9.68;;;;;;;13.78;66.36;99636.91;1741808;82;21011;-74
2021/09/17 02:09:35;;;;;;;15.40;10.78;;;;;;;13.77;66.30;99628.53;1738982;82;20982;-69
2021/09/17 02:12:02;;;;;;;15.80;11.00;;;;;;;13.76;66.44;99624.23;1737623;82;21828;-68
2021/09/17 02:14:30;;;;;;;18.67;11.75;;;;;;;13.74;66.49;99616.92;1712492;83;21561;-72
2021/09/17 02:16:57;;;;;;;18.30;10.28;;;;;;;13.73;66.53;99613.41;1712062;83;20926;-72
2021/09/17 02:19:24;;;;;;;17.98;10.10;;;;;;;13.71;66.74;99601.26;1712068;83;20988;-68
2021/09/17 02:21:54;;;;;;;13.48;10.03;;;;;;;13.71;66.57;99599.37;1712188;83;21016;-68
2021/09/17 02:24:18;;;;;;;13.10;9.05;;;;;;;13.75;66.42;99599.63;1712143;83;21144;-72
2021/09/17 02:26:44;;;;;;;13.35;9.95;;;;;;;13.78;66.43;99601.77;1713328;83;21067;-67
2021/09/17 02:29:11;;;;;;;18.50;12.18;;;;;;;13.78;66.38;99606.64;1725726;83;21527;-68
2021/09/17 02:31:38;;;;;;;17.30;11.00;;;;;;;13.78;66.39;99603.13;1723453;83;21006;-69
2021/09/17 02:34:04;;;;;;;14.23;8.70;;;;;;;13.78;66.34;99603.94;1700639;83;21079;-69
2021/09/17 02:36:30;;;;;;;20.82;9.40;;;;;;;13.79;66.15;99597.45;1726634;83;21087;-70
2021/09/17 02:38:57;;;;;;;13.95;9.73;;;;;;;13.80;65.81;99596.37;1726582;83;21015;-73
2021/09/17 02:41:23;;;;;;;11.63;8.90;;;;;;;13.84;65.62;99597.98;1726530;83;21078;-68
2021/09/17 02:43:51;;;;;;;12.60;9.25;;;;;;;13.88;65.10;99599.05;1726721;83;20960;-73
2021/09/17 02:46:17;;;;;;;13.95;9.28;;;;;;;13.93;64.85;99584.17;1723273;83;21059;-69
2021/09/17 02:48:45;;;;;;;16.77;9.68;;;;;;;13.96;64.63;99586.31;1724378;82;21864;-69
2021/09/17 02:51:12;;;;;;;14.07;8.68;;;;;;;14.00;64.30;99583.90;1709266;83;21007;-68
2021/09/17 02:53:39;;;;;;;16.15;9.68;;;;;;;14.03;64.21;99576.58;1730124;83;21544;-71
2021/09/17 02:56:07;;;;;;;12.75;8.78;;;;;;;14.06;64.01;99574.66;1737173;82;20958;-68
2021/09/17 02:58:36;;;;;;;13.50;9.38;;;;;;;14.10;63.97;99566.30;1732077;82;21012;-70
2021/09/17 03:01:03;;;;;;;14.75;9.30;;;;;;;14.13;63.79;99570.59;1713878;82;21630;-69
2021/09/17 03:03:30;;;;;;;13.55;9.18;;;;;;;14.15;63.75;99577.09;1735137;82;21049;-72
2021/09/17 03:05:58;;;;;;;19.82;12.47;;;;;;;14.15;63.84;99573.82;1737738;82;21006;-69
2021/09/17 03:08:26;;;;;;;23.90;13.53;;;;;;;14.16;63.88;99572.73;1733736;82;20983;-68
2021/09/17 03:10:57;;;;;;;27.80;15.03;;;;;;;14.14;63.84;99565.46;1736177;82;21038;-69
2021/09/17 03:13:26;;;;;;;21.60;12.37;;;;;;;14.12;63.84;99562.75;1739843;82;20975;-69
2021/09/17 03:15:54;;;;;;;18.42;10.70;;;;;;;14.12;63.67;99560.86;1735813;82;20927;-69
2021/09/17 03:18:22;;;;;;;20.08;11.65;;;;;;;14.12;63.49;99560.86;1735477;82;20919;-70
2021/09/17 03:20:51;;;;;;;15.80;10.30;;;;;;;14.14;63.50;99566.81;1735240;82;21045;-70
2021/09/17 03:23:19;;;;;;;16.12;10.72;;;;;;;14.15;63.59;99556.23;1735224;82;20991;-70
2021/09/17 03:25:47;;;;;;;13.68;9.58;;;;;;;14.16;63.56;99556.52;1738227;82;21085;-69
2021/09/17 03:28:14;;;;;;;23.77;10.72;;;;;;;14.19;63.37;99553.27;1739434;82;21011;-70
2021/09/17 03:30:42;;;;;;;15.53;10.75;;;;;;;14.23;63.15;99558.39;1739798;82;21031;-70
2021/09/17 03:33:11;;;;;;;15.83;9.58;;;;;;;14.22;63.00;99554.60;1739572;82;21607;-70
2021/09/17 03:35:39;;;;;;;11.20;9.53;;;;;;;14.24;62.78;99547.03;1739767;82;21083;-69
2021/09/17 03:38:06;;;;;;;14.80;9.03;;;;;;;14.24;62.60;99547.03;1740186;82;21092;-69
2021/09/17 03:40:35;;;;;;;17.90;10.43;;;;;;;14.29;62.42;99556.48;1738930;82;21037;-69
2021/09/17 03:43:02;;;;;;;15.78;11.05;;;;;;;14.32;62.34;99551.31;1736137;82;21130;-69
2021/09/17 03:45:32;;;;;;;14.07;8.23;;;;;;;14.34;62.04;99552.37;1739250;82;20987;-69
2021/09/17 03:48:04;;;;;;;13.93;9.45;;;;;;;14.37;61.76;99538.34;1656151;85;21014;-71
2021/09/17 03:50:31;;;;;;;14.28;8.58;;;;;;;14.39;61.59;99542.37;1740230;82;21898;-69
2021/09/17 03:52:57;;;;;;;15.23;9.03;;;;;;;14.43;61.45;99543.19;1740289;82;20887;-70
2021/09/17 03:55:25;;;;;;;16.05;8.28;;;;;;;14.45;61.31;99537.75;1743975;82;20943;-69
2021/09/17 03:57:52;;;;;;;15.48;7.95;;;;;;;14.47;61.05;99534.23;1713660;83;21006;-70
2021/09/17 04:00:19;;;;;;;15.80;8.30;;;;;;;14.49;60.85;99536.09;1729139;83;21098;-70
2021/09/17 04:02:45;;;;;;;12.47;6.87;;;;;;;14.50;60.78;99519.31;1713610;83;21552;-72
2021/09/17 04:05:12;;;;;;;13.50;9.43;;;;;;;14.53;60.85;99524.19;1703333;83;21046;-69
2021/09/17 04:07:42;;;;;;;12.98;7.42;;;;;;;14.54;60.68;99523.89;1683998;83;21041;-69
2021/09/17 04:10:12;;;;;;;14.05;8.75;;;;;;;14.52;60.64;99520.67;1683770;85;21070;-70
2021/09/17 04:12:38;;;;;;;23.92;8.98;;;;;;;14.52;60.49;99513.09;1728348;83;21050;-69
2021/09/17 04:15:08;;;;;;;9.83;7.53;;;;;;;14.54;60.59;99510.89;1712038;83;21570;-72
2021/09/17 04:17:34;;;;;;;11.10;8.48;;;;;;;14.54;60.73;99504.13;1714750;83;21485;-70
2021/09/17 04:20:06;;;;;;;15.08;8.03;;;;;;;14.55;60.91;99508.46;1742216;82;20990;-70
2021/09/17 04:22:34;;;;;;;13.15;9.10;;;;;;;14.56;60.78;99506.03;1685511;85;21006;-70
2021/09/17 04:25:04;;;;;;;14.33;10.25;;;;;;;14.53;60.84;99495.20;1724885;83;21004;-70
2021/09/17 04:27:32;;;;;;;12.03;7.87;;;;;;;14.55;60.92;99495.74;1726623;83;21519;-69
2021/09/17 04:29:58;;;;;;;14.93;8.30;;;;;;;14.55;61.02;99490.33;1741009;82;21693;-71
2021/09/17 04:32:25;;;;;;;15.18;10.23;;;;;;;14.57;60.96;99486.00;1716457;82;21059;-71
2021/09/17 04:34:51;;;;;;;8.63;6.92;;;;;;;14.56;60.78;99483.83;1744106;82;21542;-72
2021/09/17 04:37:19;;;;;;;14.00;7.85;;;;;;;14.60;60.70;99477.30;1744359;82;21528;-71
2021/09/17 04:39:47;;;;;;;11.20;7.97;;;;;;;14.61;60.66;99479.74;1741042;82;22196;-69
2021/09/17 04:42:14;;;;;;;15.65;8.25;;;;;;;14.63;60.73;99480.80;1714370;83;21519;-69
2021/09/17 04:44:41;;;;;;;21.17;9.48;;;;;;;14.65;60.71;99477.27;1738843;82;21070;-70
2021/09/17 04:47:07;;;;;;;13.20;8.88;;;;;;;14.67;60.67;99475.11;1740014;81;21003;-69
2021/09/17 04:49:35;;;;;;;11.88;8.05;;;;;;;14.71;60.62;99474.80;1705931;83;21099;-70
2021/09/17 04:52:02;;;;;;;15.75;8.53;;;;;;;14.73;60.42;99469.89;1714019;82;22090;-70
2021/09/17 04:54:30;;;;;;;18.95;8.98;;;;;;;14.72;60.35;99473.14;1732056;82;21651;-68
2021/09/17 04:56:56;;;;;;;10.58;7.15;;;;;;;14.75;60.35;99474.50;1732234;82;20990;-70
2021/09/17 04:59:23;;;;;;;12.00;8.03;;;;;;;14.79;60.30;99479.61;1720548;82;21087;-70
2021/09/17 05:01:49;;;;;;;16.12;8.35;;;;;;;14.80;60.05;99482.58;1699230;83;21552;-70
2021/09/17 05:04:16;;;;;;;10.20;7.37;;;;;;;14.82;60.01;99481.19;1726300;82;21074;-69
2021/09/17 05:06:42;;;;;;;10.18;7.37;;;;;;;14.84;60.03;99483.08;1731913;82;20952;-71
2021/09/17 05:09:09;;;;;;;13.32;7.40;;;;;;;14.88;59.88;99475.73;1732234;82;21642;-72
2021/09/17 05:11:37;;;;;;;9.48;6.67;;;;;;;14.90;59.82;99476.28;1732112;82;20967;-68
2021/09/17 05:14:04;;;;;;;14.30;7.20;;;;;;;14.93;59.66;99471.64;1731492;82;21064;-70
2021/09/17 05:16:32;;;;;;;14.07;8.05;;;;;;;14.98;59.61;99479.72;1732290;82;22179;-69
2021/09/17 05:19:00;;;;;;;11.85;7.40;;;;;;;14.99;59.54;99471.33;1673510;85;20959;-69
2021/09/17 05:21:27;;;;;;;17.75;8.30;;;;;;;15.04;59.39;99465.86;1725343;82;21011;-73
2021/09/17 05:23:54;;;;;;;13.90;7.08;;;;;;;15.08;59.18;99466.91;1731920;82;21079;-69
2021/09/17 05:26:20;;;;;;;14.70;7.97;;;;;;;15.13;59.11;99466.05;1710495;82;21078;-69
2021/09/17 05:28:48;;;;;;;24.10;8.98;;;;;;;15.19;58.89;99466.27;1732257;82;20987;-71
2021/09/17 05:31:15;;;;;;;9.03;6.10;;;;;;;15.24;58.71;99467.58;1731871;82;21019;-74
2021/09/17 05:33:43;;;;;;;8.50;7.03;;;;;;;15.31;58.54;99463.16;1703806;83;21003;-72
2021/09/17 05:36:09;;;;;;;8.78;6.87;;;;;;;15.39;58.52;99459.85;1684531;84;21015;-69
2021/09/17 05:38:36;;;;;;;8.05;5.85;;;;;;;15.48;58.19;99452.70;1707434;84;21072;-70
2021/09/17 05:41:04;;;;;;;11.57;7.17;;;;;;;15.56;57.78;99459.68;1703914;84;21532;-70
2021/09/17 05:43:31;;;;;;;9.65;6.80;;;;;;;15.62;57.58;99453.66;1710867;82;21034;-76
2021/09/17 05:45:57;;;;;;;11.18;7.80;;;;;;;15.69;57.31;99450.04;1732275;82;20925;-69
2021/09/17 05:48:24;;;;;;;9.45;6.62;;;;;;;15.74;57.13;99443.75;1731272;82;20979;-72
2021/09/17 05:50:52;;;;;;;11.73;7.17;;;;;;;15.80;56.98;99443.95;1744297;82;21030;-72
2021/09/17 05:53:19;;;;;;;18.35;9.73;;;;;;;15.84;56.74;99440.37;1744045;82;22957;-71
2021/09/17 05:55:45;;;;;;;11.78;7.87;;;;;;;15.91;56.71;99435.95;1718165;82;20955;-74
2021/09/17 05:58:12;;;;;;;12.20;7.35;;;;;;;15.97;56.43;99428.80;1685654;83;21007;-69
2021/09/17 06:00:39;;;;;;;12.47;7.22;;;;;;;16.06;55.82;99423.55;1656210;86;21031;-71
2021/09/17 06:03:06;;;;;;;12.43;8.05;;;;;;;16.14;55.57;99422.89;1689913;83;21070;-69
2021/09/17 06:05:32;;;;;;;10.28;6.50;;;;;;;16.20;55.25;99419.56;1714089;83;21075;-69
2021/09/17 06:08:01;;;;;;;11.73;6.67;;;;;;;16.28;54.85;99414.27;1714136;83;20971;-69
2021/09/17 06:10:29;;;;;;;12.55;6.72;;;;;;;16.34;54.71;99414.46;1732553;82;21662;-69
2021/09/17 06:12:56;;;;;;;14.80;6.35;;;;;;;16.42;54.48;99412.98;1741365;82;21073;-69
2021/09/17 06:15:22;;;;;;;8.18;5.95;;;;;;;16.49;54.46;99420.21;1711085;82;21535;-71
2021/09/17 06:17:50;;;;;;;8.33;5.08;;;;;;;16.53;54.30;99420.68;1734726;82;21022;-70
2021/09/17 06:20:17;;;;;;;12.15;6.35;;;;;;;16.62;54.23;99417.31;1742054;82;21014;-71
2021/09/17 06:22:45;;;;;;;15.83;6.20;;;;;;;16.71;54.06;99414.98;1742068;82;21131;-70
2021/09/17 06:25:15;;;;;;;8.13;6.50;;;;;;;16.75;54.00;99403.78;1685207;85;21081;-71
2021/09/17 06:27:43;;;;;;;10.72;6.72;;;;;;;16.82;53.97;99393.91;1686906;83;21140;-77
2021/09/17 06:30:11;;;;;;;9.35;6.28;;;;;;;16.89;53.80;99397.83;1703805;83;20997;-73
2021/09/17 06:32:37;;;;;;;7.17;5.83;;;;;;;16.97;53.85;99397.17;1682358;85;20967;-70
2021/09/17 06:35:07;;;;;;;8.38;5.62;;;;;;;17.07;53.76;99385.86;1728123;83;21008;-72
2021/09/17 06:37:33;;;;;;;9.03;6.25;;;;;;;17.15;53.70;99389.23;1685595;85;21046;-69
2021/09/17 06:39:59;;;;;;;7.08;5.55;;;;;;;17.23;53.76;99384.45;1742309;82;21567;-69
2021/09/17 06:42:26;;;;;;;9.83;6.20;;;;;;;17.35;53.85;99386.95;1661763;85;21278;-70
2021/09/17 06:44:52;;;;;;;9.00;7.15;;;;;;;17.48;53.80;99377.16;1742200;82;21054;-70
2021/09/17 06:47:19;;;;;;;10.20;6.50;;;;;;;17.59;53.71;99381.33;1718871;82;21027;-70
2021/09/17 06:49:47;;;;;;;12.82;7.00;;;;;;;17.72;53.76;99377.78;1741070;82;21056;-69
2021/09/17 06:52:13;;;;;;;24.35;9.30;;;;;;;17.84;53.82;99380.77;1737657;82;21000;-70
2021/09/17 06:54:40;;;;;;;13.28;6.55;;;;;;;17.96;53.85;99373.45;1700624;83;21605;-69
2021/09/17 06:57:08;;;;;;;11.18;7.55;;;;;;;18.09;53.92;99370.44;1712569;83;22225;-70
2021/09/17 06:59:35;;;;;;;9.70;6.50;;;;;;;18.19;54.13;99371.02;1690324;84;21060;-68
2021/09/17 07:02:02;;;;;;;15.75;6.67;;;;;;;18.33;54.35;99372.88;1680458;85;21465;-70
2021/09/17 07:04:28;;;;;;;12.25;6.08;;;;;;;18.45;54.43;99369.06;1678923;85;21063;-69
2021/09/17 07:06:54;;;;;;;16.75;6.67;;;;;;;18.56;54.72;99371.83;1708632;83;21141;-70
2021/09/17 07:09:22;;;;;;;16.32;6.97;;;;;;;18.69;55.16;99366.30;1709486;82;20952;-71
2021/09/17 07:11:50;;;;;;;16.10;7.33;;;;;;;18.83;55.49;99366.78;1708237;83;20978;-68
2021/09/17 07:14:19;;;;;;;17.27;7.90;;;;;;;18.95;55.77;99358.81;1720122;82;20976;-70
2021/09/17 07:16:47;;;;;;;14.90;6.65;;;;;;;19.08;56.25;99366.12;1689207;83;21533;-70
2021/09/17 07:19:13;;;;;;;20.37;10.58;;;;;;;19.21;56.09;99371.22;1690013;83;21164;-69
2021/09/17 07:21:40;;;;;;;18.20;7.22;;;;;;;19.33;56.87;99367.35;1703675;83;21607;-70
2021/09/17 07:24:08;;;;;;;12.80;7.60;;;;;;;19.44;56.87;99361.86;1737999;82;21003;-70
2021/09/17 07:26:34;;;;;;;22.82;9.80;;;;;;;19.53;56.91;99362.69;1737569;82;21012;-70
2021/09/17 07:29:01;;;;;;;22.42;11.75;;;;;;;19.63;57.00;99363.77;1737804;82;21612;-72
2021/09/17 07:31:28;;;;;;;22.17;12.65;;;;;;;19.72;57.16;99365.14;1714068;82;21127;-70
2021/09/17 07:33:54;;;;;;;22.95;10.20;;;;;;;19.81;57.51;99361.86;1713995;81;20991;-72
2021/09/17 07:36:21;;;;;;;19.17;9.95;;;;;;;19.87;57.74;99359.23;1737428;81;20986;-68
2021/09/17 07:38:49;;;;;;;33.58;11.00;;;;;;;19.96;57.61;99358.13;1738622;82;20977;-70
2021/09/17 07:41:17;;;;;;;22.85;10.18;;;;;;;20.01;57.58;99356.61;1716554;82;21009;-70
2021/09/17 07:43:43;;;;;;;17.05;8.18;;;;;;;20.06;57.44;99354.28;1712313;83;21064;-69
2021/09/17 07:46:10;;;;;;;11.25;8.05;;;;;;;20.06;57.45;99348.01;1712218;83;20983;-72
2021/09/17 07:48:36;;;;;;;24.92;8.90;;;;;;;20.07;57.34;99342.80;1712549;83;21051;-73
2021/09/17 07:51:03;;;;;;;15.95;7.62;;;;;;;20.10;57.39;99349.78;1734353;82;21043;-70
2021/09/17 07:53:29;;;;;;;10.35;7.90;;;;;;;20.18;57.16;99344.09;1735434;82;21063;-70
2021/09/17 07:55:56;;;;;;;17.37;9.60;;;;;;;20.18;57.29;99344.91;1679192;84;21108;-69
2021/09/17 07:58:22;;;;;;;18.90;7.87;;;;;;;20.16;57.39;99336.21;1655859;85;21011;-71
2021/09/17 08:00:49;;;;;;;18.80;11.15;;;;;;;20.21;57.42;99337.98;1671280;85;21533;-73
2021/09/17 08:03:16;;;;;;;25.20;12.25;;;;;;;20.25;57.40;99338.37;1677192;85;21188;-72
2021/09/17 08:05:43;;;;;;;21.65;14.70;;;;;;;20.26;57.65;99326.89;1679517;84;21569;-75
2021/09/17 08:08:10;;;;;;;31.82;11.75;;;;;;;20.31;57.68;99325.39;1682526;84;21348;-75
2021/09/17 08:10:36;;;;;;;21.15;9.63;;;;;;;20.34;57.46;99330.20;1702218;84;20960;-73
2021/09/17 08:13:03;;;;;;;21.17;10.25;;;;;;;20.34;57.47;99331.01;1706549;84;21054;-72
2021/09/17 08:15:29;;;;;;;17.95;10.95;;;;;;;20.32;57.71;99328.38;1707262;84;21558;-78
2021/09/17 08:17:58;;;;;;;19.90;12.18;;;;;;;20.35;57.74;99323.62;1703061;84;21535;-75
2021/09/17 08:20:24;;;;;;;30.08;18.12;;;;;;;20.36;57.78;99316.47;1708428;82;21266;-71
2021/09/17 08:22:50;;;;;;;27.20;15.28;;;;;;;20.40;57.77;99322.09;1699358;83;21535;-72
2021/09/17 08:25:17;;;;;;;26.68;15.55;;;;;;;20.45;57.68;99315.09;1712146;83;20991;-71
2021/09/17 08:27:43;;;;;;;24.72;14.68;;;;;;;20.48;57.74;99314.43;1682676;84;21074;-72
2021/09/17 08:30:12;;;;;;;22.45;14.58;;;;;;;20.55;57.85;99298.36;1702829;84;21011;-73
2021/09/17 08:32:39;;;;;;;22.25;13.30;;;;;;;20.55;57.85;99298.36;1729081;82;21023;-72
2021/09/17 08:35:09;;;;;;;19.27;14.45;;;;;;;20.65;57.42;99302.67;1676393;85;20955;-76
2021/09/17 08:37:37;;;;;;;18.82;11.80;;;;;;;20.61;57.21;99292.16;1678428;85;21540;-74
2021/09/17 08:40:06;;;;;;;20.00;10.68;;;;;;;20.59;57.69;99296.58;1656900;85;21016;-73
2021/09/17 08:42:33;;;;;;;15.93;9.78;;;;;;;20.59;57.69;99296.58;1656974;85;21184;-75
2021/09/17 08:45:00;;;;;;;19.10;9.93;;;;;;;20.55;57.63;99300.29;1678577;85;21783;-74
2021/09/17 08:47:27;;;;;;;21.52;9.33;;;;;;;20.48;57.96;99289.84;1656597;85;21014;-75
2021/09/17 08:49:56;;;;;;;13.18;7.83;;;;;;;20.48;57.96;99289.84;1703051;83;21012;-74
2021/09/17 08:52:23;;;;;;;13.72;8.10;;;;;;;20.50;58.18;99284.87;1725204;83;21500;-75
2021/09/17 08:54:49;;;;;;;13.83;7.92;;;;;;;20.50;58.18;99284.87;1713943;83;21063;-76
2021/09/17 08:57:16;;;;;;;14.18;8.88;;;;;;;20.50;58.20;99278.59;1709584;83;21217;-75
2021/09/17 08:59:44;;;;;;;16.12;8.40;;;;;;;20.48;58.42;99268.58;1693410;83;21031;-75
2021/09/17 09:02:28;;;;;;;18.20;7.72;;;;;;;20.48;58.59;99275.41;1695942;84;21616;-71
2021/09/17 09:05:08;;;;;;;15.65;9.13;;;;;;;20.46;58.66;99278.45;1712723;83;21011;-74
2021/09/17 09:07:40;;;;;;;16.15;9.40;;;;;;;20.47;58.72;99271.88;1718442;83;21024;-72
2021/09/17 09:10:12;;;;;;;25.17;8.63;;;;;;;20.47;58.72;99271.88;1722945;83;21748;-76
2021/09/17 09:12:55;;;;;;;14.53;8.93;;;;;;;20.43;58.84;99270.92;1691770;84;21024;-73
2021/09/17 09:15:31;;;;;;;12.60;8.65;;;;;;;20.43;59.20;99273.06;1695687;84;21568;-72
2021/09/17 09:18:10;;;;;;;17.17;9.58;;;;;;;20.43;59.20;99273.06;1700974;83;21063;-71
2021/09/17 09:20:41;;;;;;;17.37;10.10;;;;;;;20.43;59.40;99272.28;1713398;83;21070;-73
2021/09/17 09:23:20;;;;;;;17.55;8.78;;;;;;;20.43;59.40;99272.28;1719328;83;21062;-71
2021/09/17 09:26:03;;;;;;;14.03;9.60;;;;;;;20.45;59.25;99271.38;1696419;83;21557;-73
2021/09/17 09:28:42;;;;;;;12.30;8.33;;;;;;;20.46;59.11;99275.72;1690393;83;22161;-72
2021/09/17 09:31:19;;;;;;;15.90;7.70;;;;;;;20.49;58.82;99269.59;1723410;83;21161;-71
2021/09/17 09:33:48;;;;;;;14.03;7.37;;;;;;;20.46;58.84;99266.16;1698565;83;21336;-72
2021/09/17 09:36:20;;;;;;;14.68;8.25;;;;;;;20.49;58.78;99266.87;1706287;83;21088;-72
2021/09/17 09:38:54;;;;;;;16.57;8.75;;;;;;;20.47;58.97;99265.04;1707227;83;20945;-76
2021/09/17 09:41:27;;;;;;;18.82;9.30;;;;;;;20.47;58.95;99264.23;1707841;83;21127;-73
2021/09/17 09:44:07;;;;;;;9.68;7.72;;;;;;;20.50;58.89;99258.91;1711930;83;21095;-78
2021/09/17 09:46:45;;;;;;;10.10;6.67;;;;;;;20.52;58.76;99262.70;1708972;83;21090;-72
2021/09/17 09:49:22;;;;;;;10.08;6.62;;;;;;;20.51;58.79;99246.06;1666013;84;21058;-72
2021/09/17 09:51:59;;;;;;;11.03;7.87;;;;;;;20.54;58.79;99246.77;1728714;82;21545;-72
2021/09/17 09:54:29;;;;;;;11.05;7.55;;;;;;;20.55;58.85;99244.27;1688224;83;21023;-72
2021/09/17 09:56:57;;;;;;;15.30;7.80;;;;;;;20.56;58.87;99241.78;1711416;83;21008;-72
2021/09/17 09:59:27;;;;;;;17.75;8.60;;;;;;;20.56;58.95;99236.32;1733547;82;21039;-72
2021/09/17 10:01:56;;;;;;;17.17;6.67;;;;;;;20.55;59.30;99227.88;1717928;82;21168;-71
2021/09/17 10:04:24;;;;;;;8.05;6.30;;;;;;;20.55;59.30;99227.88;1721705;82;21016;-73
2021/09/17 10:07:05;;;;;;;11.68;8.28;;;;;;;20.59;59.21;99233.73;1696954;82;20988;-73
2021/09/17 10:09:33;;;;;;;16.42;9.88;;;;;;;20.64;59.39;99225.36;1711076;82;21511;-73
2021/09/17 10:11:59;;;;;;;12.80;7.40;;;;;;;20.64;59.39;99225.36;1709984;83;21047;-72
2021/09/17 10:14:27;;;;;;;20.57;8.40;;;;;;;20.68;59.41;99209.09;1724275;82;21158;-71
2021/09/17 10:16:55;;;;;;;16.57;7.72;;;;;;;20.68;59.41;99209.09;1714571;82;21086;-69
2021/09/17 10:19:21;;;;;;;13.90;8.05;;;;;;;20.74;59.01;99213.26;1716000;82;21520;-74
2021/09/17 10:22:04;;;;;;;11.97;8.25;;;;;;;20.75;58.93;99204.73;1730196;82;20991;-69
2021/09/17 10:24:38;;;;;;;10.03;6.55;;;;;;;20.79;58.84;99203.51;1736491;82;21074;-74
2021/09/17 10:27:11;;;;;;;23.12;8.75;;;;;;;20.82;58.77;99207.74;1729122;82;21159;-72
2021/09/17 10:29:45;;;;;;;13.45;8.30;;;;;;;20.86;58.66;99203.22;1710243;82;21054;-70
2021/09/17 10:32:40;;;;;;;12.30;7.15;;;;;;;20.89;58.48;99195.74;1727414;82;21052;-80
2021/09/17 10:35:14;;;;;;;13.45;7.65;;;;;;;20.94;58.49;99190.65;1730258;82;21093;-72
2021/09/17 10:38:09;;;;;;;12.98;9.00;;;;;;;21.00;58.24;99195.37;1711929;82;21050;-69
2021/09/17 10:41:03;;;;;;;14.73;8.78;;;;;;;21.04;58.15;99194.94;1715274;82;22362;-73
2021/09/17 10:43:46;;;;;;;16.80;8.25;;;;;;;21.06;57.93;99194.83;1731849;82;21106;-74
2021/09/17 10:46:28;;;;;;;9.68;7.65;;;;;;;21.12;57.92;99196.81;1730141;82;21156;-73
2021/09/17 10:48:58;;;;;;;14.25;7.97;;;;;;;21.15;57.78;99197.56;1733533;82;21070;-68
2021/09/17 10:51:37;;;;;;;9.90;7.47;;;;;;;21.20;57.67;99192.67;1737376;82;20986;-68
2021/09/17 10:54:19;;;;;;;9.20;7.17;;;;;;;21.24;57.75;99190.91;1733061;82;21067;-70
2021/09/17 10:56:52;;;;;;;12.13;6.60;;;;;;;21.27;57.63;99177.11;1733956;82;21055;-68
2021/09/17 10:59:24;;;;;;;8.95;6.40;;;;;;;21.31;57.33;99177.48;1711024;82;21015;-85
2021/09/17 11:02:06;;;;;;;15.08;7.45;;;;;;;21.37;57.09;99167.70;1716189;82;21501;-69
2021/09/17 11:04:36;;;;;;;8.15;6.85;;;;;;;21.45;56.83;99168.20;1705780;82;21060;-76
2021/09/17 11:07:25;;;;;;;13.45;7.35;;;;;;;21.49;56.53;99164.45;1720121;83;21918;-77
2021/09/17 11:09:56;;;;;;;14.70;8.33;;;;;;;21.54;56.53;99160.72;1696817;83;21015;-69
2021/09/17 11:12:30;;;;;;;11.38;7.30;;;;;;;21.59;56.29;99165.42;1708857;82;21617;-76
2021/09/17 11:15:13;;;;;;;20.05;7.58;;;;;;;21.64;56.06;99167.95;1720018;83;21060;-78
2021/09/17 11:17:48;;;;;;;12.40;7.10;;;;;;;21.69;55.97;99170.48;1704091;83;21136;-86
2021/09/17 11:20:22;;;;;;;;;;;;;;;21.74;55.81;99174.39;1682404;84;21790;-77
2021/09/17 11:23:07;;;;;;;9.08;6.78;;;;;;;21.77;55.71;99164.72;1683288;84;20097;-68
2021/09/17 11:25:43;;;;;;;14.00;8.45;;;;;;;21.78;55.40;99160.82;1713675;83;21106;-69
2021/09/17 11:28:30;;;;;;;14.40;8.03;;;;;;;21.81;54.98;99153.32;1716793;81;20995;-74
2021/09/17 11:31:11;;;;;;;14.58;8.78;;;;;;;21.83;54.88;99155.13;1728080;83;21063;-74
2021/09/17 11:33:40;;;;;;;16.70;8.35;;;;;;;21.86;54.80;99153.68;1702046;83;21064;-70